الصفحة الرئيسية
METAR-TAF:

METAR-TAF

مطار :

Kerteh, ماليزيا

دائرة عرض: 04-32-15N, خط طول: 103-25-36E, ارتفاع: 5 متر

مراقبة الطقس الحالي

تاريخ ووقت الإصدار 37 دقيقة قبل الساعة 02:00UTC
ريح 3 عقدةمن اتجاهات متغيرة
درجة الحرارة 31°درجة مئوية
الرطوبة 71%
ضغط 1010 hPa
الرؤية 10 كم أو أكثر
غيوم قليلة على ارتفاع 1700 قدم

METAR: WMKE 190200Z VRB03KT 9999 FEW017 31/25 Q1010

زمن: 10:37 (02:37 UTC)

توقعات

تاريخ ووقت الإصدار 3ساعات و 37 دقيقة قبل الساعة 23:00UTC
التوقعات صالحة من19 الساعة 00 UTC إلى 20 الساعة 00 UTC
ريح 6 عقدة من الجنوب/الجنوب الشرقي
الرؤية 10 كم أو أكثر
غيوم قليلة على ارتفاع 1700 قدم
مؤقت
من 19 الساعة 10 UTC إلى 19 الساعة 12 UTC
الرؤية: 7000 متر
غيوم قليلة على ارتفاع 1400 قدم, مزنة ركامية.
عاصفة رعدية, مطر خفيف

TAF: WMKE 182300Z 1900/2000 15006KT 9999 FEW017 TEMPO 1910/1912 7000 -TSRA FEW014CB

أرصاد الطقس والتوقعات من أكثر من 4000 مطار (تقارير الطقس للمطار METAR والتنبؤ بالطقس بالمطارTAF).

المحطات المتاحة هي النقط الصفراء والحمراء على الخريطة.

حرك المؤشر فوق النقطة لمعرفة اسم المحطة.

ثم انقر لمعرفة أرصاد وتوقعات الطقس.

لتغيير الخارطة: اضغط على الأزرار الخضراء مع رمز الصليب الأسود للتكبير. على الزر الأخضر مع شرطة للتصغير، أو على الأسهم الخضراء للخرائط المجاورة.


METAR-TAF: